createdAt,value
2019-05-14T00:01:39.139Z,21.81
2019-05-14T00:03:41.384Z,21.66
2019-05-14T00:05:42.565Z,21.82
2019-05-14T00:07:44.177Z,21.86
2019-05-14T00:09:45.775Z,21.87
2019-05-14T00:11:47.364Z,21.90
2019-05-14T00:13:48.986Z,21.92
2019-05-14T00:15:52.151Z,21.93
2019-05-14T00:17:52.412Z,21.94
2019-05-14T00:20:06.239Z,21.94
2019-05-14T00:21:55.532Z,21.90
2019-05-14T00:23:57.162Z,21.86
2019-05-14T00:25:58.831Z,21.91
2019-05-14T00:28:01.325Z,21.96
2019-05-14T00:30:02.523Z,21.97
2019-05-14T00:32:03.694Z,21.98
2019-05-14T00:34:05.336Z,22.01
2019-05-14T00:36:06.943Z,22.06
2019-05-14T00:38:08.666Z,22.11
2019-05-14T00:40:11.797Z,22.12
2019-05-14T00:42:12.501Z,22.13
2019-05-14T00:44:13.668Z,22.11
2019-05-14T00:46:15.252Z,22.09
2019-05-14T00:48:16.818Z,22.05
2019-05-14T00:50:18.400Z,22.04
2019-05-14T00:52:22.037Z,22.06
2019-05-14T00:54:21.712Z,22.07
2019-05-14T00:56:23.325Z,22.06
2019-05-14T00:58:24.963Z,22.03
2019-05-14T01:00:26.573Z,22.01
2019-05-14T01:02:28.185Z,22.00
2019-05-14T01:04:31.661Z,22.01
2019-05-14T01:06:31.674Z,22.03
2019-05-14T01:08:33.151Z,22.02
2019-05-14T01:10:34.747Z,22.02
2019-05-14T01:12:36.322Z,22.01
2019-05-14T01:14:37.944Z,21.99
2019-05-14T01:16:42.220Z,22.00
2019-05-14T01:18:41.530Z,22.03
2019-05-14T01:20:42.847Z,22.03
2019-05-14T01:22:44.418Z,22.02
2019-05-14T01:24:46.024Z,21.98
2019-05-14T01:26:47.642Z,22.01
2019-05-14T01:28:51.196Z,22.00
2019-05-14T01:30:51.892Z,22.00
2019-05-14T01:32:52.580Z,21.99
2019-05-14T01:34:54.188Z,21.99
2019-05-14T01:36:55.809Z,21.98
2019-05-14T01:38:57.383Z,22.03
2019-05-14T01:41:01.605Z,22.04
2019-05-14T01:43:02.584Z,22.03
2019-05-14T01:45:02.724Z,22.03
2019-05-14T01:47:04.003Z,22.02
2019-05-14T01:49:05.648Z,22.00
2019-05-14T01:51:07.250Z,21.99
2019-05-14T01:53:08.860Z,21.97
2019-05-14T01:55:11.389Z,21.99
2019-05-14T01:57:12.080Z,22.05
2019-05-14T01:59:13.682Z,22.10
2019-05-14T02:01:15.353Z,22.12
2019-05-14T02:03:16.964Z,22.18
2019-05-14T02:05:18.563Z,21.99
2019-05-14T02:07:22.126Z,22.31
2019-05-14T02:09:21.854Z,22.34
2019-05-14T02:11:23.496Z,22.34
2019-05-14T02:13:25.080Z,22.35
2019-05-14T02:15:38.869Z,22.40
2019-05-14T02:17:28.318Z,22.41
2019-05-14T02:19:31.666Z,22.42
2019-05-14T02:21:31.920Z,22.40
2019-05-14T02:23:33.220Z,22.42
2019-05-14T02:25:34.860Z,22.40
2019-05-14T02:27:36.463Z,22.40
2019-05-14T02:29:38.101Z,22.37
2019-05-14T02:31:39.697Z,22.32
2019-05-14T02:33:41.310Z,22.27
2019-05-14T02:35:42.915Z,22.25
2019-05-14T02:37:44.501Z,22.25
2019-05-14T02:39:46.240Z,22.22
2019-05-14T02:41:49.936Z,22.21
2019-05-14T02:43:50.566Z,22.22
2019-05-14T02:46:09.761Z,22.21
2019-05-14T02:47:53.348Z,22.22
2019-05-14T02:49:54.936Z,22.24
2019-05-14T02:51:59.090Z,22.24
2019-05-14T02:53:59.085Z,22.21
2019-05-14T02:55:59.813Z,22.25
2019-05-14T02:58:01.433Z,22.25
2019-05-14T03:00:03.090Z,22.29
2019-05-14T03:02:04.701Z,22.29
2019-05-14T03:04:08.942Z,22.27
2019-05-14T03:06:09.411Z,22.22
2019-05-14T03:08:09.710Z,22.18
2019-05-14T03:10:11.311Z,22.15
2019-05-14T03:12:12.943Z,22.14
2019-05-14T03:14:14.564Z,22.21
2019-05-14T03:16:26.095Z,22.22
2019-05-14T03:18:19.811Z,22.25
2019-05-14T03:20:19.854Z,22.23
2019-05-14T03:22:26.736Z,22.24
2019-05-14T03:24:22.823Z,22.27
2019-05-14T03:26:24.439Z,22.30
2019-05-14T03:28:26.049Z,22.29
2019-05-14T03:30:32.201Z,22.30
2019-05-14T03:32:32.894Z,22.29
2019-05-14T03:34:33.142Z,22.30
2019-05-14T03:36:35.001Z,22.29
2019-05-14T03:38:34.252Z,22.29
2019-05-14T03:40:35.880Z,22.29
2019-05-14T03:42:39.993Z,22.30
2019-05-14T03:44:39.973Z,22.33
2019-05-14T03:46:48.917Z,22.35
2019-05-14T03:48:42.545Z,22.39
2019-05-14T03:50:44.134Z,22.41
2019-05-14T03:52:45.740Z,22.42
2019-05-14T03:54:49.692Z,22.44
2019-05-14T03:56:49.814Z,22.45
2019-05-14T03:58:50.699Z,22.45
2019-05-14T04:00:52.289Z,22.44
2019-05-14T04:02:53.877Z,22.47
2019-05-14T04:04:55.504Z,22.46
2019-05-14T04:06:59.899Z,22.21
2019-05-14T04:09:00.570Z,22.45
2019-05-14T04:11:00.516Z,22.47
2019-05-14T04:13:02.136Z,22.45
2019-05-14T04:15:03.720Z,22.44
2019-05-14T04:17:11.075Z,22.44
2019-05-14T04:19:09.787Z,22.40
2019-05-14T04:21:09.853Z,22.36
2019-05-14T04:23:10.258Z,22.33
2019-05-14T04:25:11.884Z,22.34
2019-05-14T04:27:13.679Z,22.34
2019-05-14T04:29:15.114Z,22.29
2019-05-14T04:31:19.158Z,22.25
2019-05-14T04:33:18.893Z,22.23
2019-05-14T04:35:20.281Z,22.28
2019-05-14T04:37:21.696Z,22.35
2019-05-14T04:39:23.340Z,22.40
2019-05-14T04:41:24.945Z,22.44
2019-05-14T04:43:29.177Z,22.49
2019-05-14T04:45:29.719Z,22.55
2019-05-14T04:47:36.059Z,22.57
2019-05-14T04:49:31.536Z,22.57
2019-05-14T04:51:33.124Z,22.58
2019-05-14T04:53:34.713Z,22.55
2019-05-14T04:55:36.292Z,22.55
2019-05-14T04:57:39.173Z,22.55
2019-05-14T04:59:40.018Z,22.56
2019-05-14T05:01:41.166Z,22.58
2019-05-14T05:03:42.762Z,22.63
2019-05-14T05:05:44.378Z,22.64
2019-05-14T05:07:48.946Z,22.64
2019-05-14T05:09:50.252Z,22.65
2019-05-14T05:11:49.976Z,22.65
2019-05-14T05:13:50.999Z,22.67
2019-05-14T05:15:52.620Z,22.70
2019-05-14T05:17:54.208Z,22.74
2019-05-14T05:19:58.954Z,22.79
2019-05-14T05:21:58.724Z,22.81
2019-05-14T05:23:59.244Z,22.85
2019-05-14T05:26:00.832Z,22.89
2019-05-14T05:28:02.436Z,22.93
2019-05-14T05:30:04.024Z,22.94
2019-05-14T05:32:05.665Z,22.98
2019-05-14T05:34:08.919Z,22.97
2019-05-14T05:36:09.583Z,22.71
2019-05-14T05:38:10.556Z,22.99
2019-05-14T05:40:12.168Z,23.00
2019-05-14T05:42:13.788Z,23.00
2019-05-14T05:44:16.013Z,23.06
2019-05-14T05:46:19.139Z,23.07
2019-05-14T05:48:19.291Z,23.08
2019-05-14T05:50:20.871Z,23.11
2019-05-14T05:52:22.512Z,23.13
2019-05-14T05:54:24.099Z,23.13
2019-05-14T05:56:25.679Z,23.14
2019-05-14T05:58:29.935Z,23.16
2019-05-14T06:00:29.849Z,23.13
2019-05-14T06:02:30.588Z,22.97
2019-05-14T06:04:32.176Z,23.09
2019-05-14T06:06:33.784Z,23.05
2019-05-14T06:08:35.365Z,23.12
2019-05-14T06:10:39.740Z,23.13
2019-05-14T06:12:39.032Z,23.14
2019-05-14T06:14:40.316Z,23.11
2019-05-14T06:16:41.942Z,23.00
2019-05-14T06:18:43.556Z,22.95
2019-05-14T06:20:45.146Z,22.96
2019-05-14T06:22:48.862Z,22.90
2019-05-14T06:24:48.765Z,22.82
2019-05-14T06:26:50.172Z,22.85
2019-05-14T06:28:51.760Z,22.78
2019-05-14T06:30:53.359Z,22.71
2019-05-14T06:32:54.995Z,22.64
2019-05-14T06:34:59.149Z,22.65
2019-05-14T06:36:59.154Z,22.66
2019-05-14T06:38:59.888Z,22.66
2019-05-14T06:41:01.504Z,22.60
2019-05-14T06:43:03.130Z,22.56
2019-05-14T06:45:04.707Z,22.61
2019-05-14T06:47:06.348Z,22.62
2019-05-14T06:49:09.105Z,22.57
2019-05-14T06:51:09.580Z,22.68
2019-05-14T06:53:11.164Z,22.72
2019-05-14T06:55:12.772Z,22.70
2019-05-14T06:57:14.416Z,22.64
2019-05-14T06:59:18.021Z,22.57
2019-05-14T07:01:18.497Z,22.53
2019-05-14T07:03:19.313Z,22.52
2019-05-14T07:05:20.922Z,22.66
2019-05-14T07:07:22.550Z,22.78
2019-05-14T07:09:24.141Z,22.87
2019-05-14T07:11:25.726Z,22.70
2019-05-14T07:13:29.213Z,22.83
2019-05-14T07:15:29.152Z,22.87
2019-05-14T07:17:30.667Z,22.65
2019-05-14T07:19:32.272Z,22.54
2019-05-14T07:21:33.900Z,22.44
2019-05-14T07:23:38.190Z,22.37
2019-05-14T07:25:39.249Z,22.36
2019-05-14T07:27:39.334Z,22.46
2019-05-14T07:29:40.522Z,22.47
2019-05-14T07:31:42.112Z,22.42
2019-05-14T07:33:43.683Z,22.45
2019-05-14T07:35:45.270Z,22.43
2019-05-14T07:37:48.895Z,22.39
2019-05-14T07:39:48.802Z,22.37
2019-05-14T07:41:50.188Z,22.34
2019-05-14T07:43:51.782Z,22.33
2019-05-14T07:45:53.392Z,22.31
2019-05-14T07:47:55.055Z,22.32
2019-05-14T07:49:58.271Z,22.30
2019-05-14T07:51:58.843Z,22.28
2019-05-14T07:54:00.124Z,22.25
2019-05-14T07:56:01.709Z,22.22
2019-05-14T07:58:03.350Z,22.20
2019-05-14T08:00:04.960Z,22.18
2019-05-14T08:02:09.330Z,21.95
2019-05-14T08:04:11.179Z,22.20
2019-05-14T08:06:10.623Z,22.20
2019-05-14T08:08:12.216Z,22.24
2019-05-14T08:10:13.856Z,22.26
2019-05-14T08:12:18.604Z,22.27
2019-05-14T08:14:18.522Z,22.24
2019-05-14T08:16:18.910Z,22.26
2019-05-14T08:18:20.917Z,22.28
2019-05-14T08:20:22.054Z,20.42
2019-05-14T08:22:23.636Z,20.44
2019-05-14T08:24:27.096Z,20.67
2019-05-14T08:26:28.751Z,20.78
2019-05-14T08:28:29.011Z,20.76
2019-05-14T08:30:30.285Z,20.65
2019-05-14T08:32:31.868Z,20.66
2019-05-14T08:34:33.434Z,20.70
2019-05-14T08:36:35.038Z,20.70
2019-05-14T08:38:38.320Z,20.68
2019-05-14T08:40:38.348Z,21.44
2019-05-14T08:42:39.916Z,21.91
2019-05-14T08:44:41.483Z,22.11
2019-05-14T08:46:45.145Z,22.22
2019-05-14T08:48:44.712Z,22.34
2019-05-14T08:50:48.107Z,22.39
2019-05-14T08:52:48.458Z,22.42
2019-05-14T08:55:05.409Z,22.47
2019-05-14T08:56:51.305Z,22.50
2019-05-14T08:58:52.896Z,22.56
2019-05-14T09:00:54.484Z,22.58
2019-05-14T09:02:56.068Z,22.60
2019-05-14T09:05:03.699Z,22.64
2019-05-14T09:06:59.416Z,22.66
2019-05-14T09:09:00.991Z,22.69
2019-05-14T09:11:02.601Z,22.72
2019-05-14T09:13:04.198Z,22.75
2019-05-14T09:15:05.785Z,22.62
2019-05-14T09:17:09.675Z,22.67
2019-05-14T09:19:09.027Z,22.70
2019-05-14T09:21:10.635Z,22.72
2019-05-14T09:23:12.231Z,22.70
2019-05-14T09:25:13.847Z,22.68
2019-05-14T09:27:15.437Z,22.71
2019-05-14T09:29:25.273Z,22.71
2019-05-14T09:31:19.772Z,22.70
2019-05-14T09:33:23.951Z,22.64
2019-05-14T09:35:21.984Z,22.59
2019-05-14T09:37:23.592Z,22.50
2019-05-14T09:39:25.189Z,22.37
2019-05-14T09:41:30.152Z,22.31
2019-05-14T09:43:28.665Z,22.29
2019-05-14T09:45:30.139Z,22.26
2019-05-14T09:47:31.746Z,22.29
2019-05-14T09:49:33.372Z,22.36
2019-05-14T09:51:34.945Z,22.32
2019-05-14T09:53:38.425Z,22.33
2019-05-14T09:55:38.849Z,22.04
2019-05-14T09:57:39.891Z,22.09
2019-05-14T09:59:41.486Z,22.09
2019-05-14T10:01:43.074Z,22.04
2019-05-14T10:03:44.665Z,21.99
2019-05-14T10:05:46.258Z,21.96
2019-05-14T10:07:49.489Z,21.94
2019-05-14T10:09:49.518Z,21.92
2019-05-14T10:11:51.128Z,21.66
2019-05-14T10:13:52.746Z,21.91
2019-05-14T10:15:54.333Z,21.93
2019-05-14T10:17:59.824Z,21.95
2019-05-14T10:19:59.470Z,21.94
2019-05-14T10:21:59.261Z,21.91
2019-05-14T10:24:00.857Z,21.89
2019-05-14T10:26:02.444Z,21.87
2019-05-14T10:28:04.029Z,21.87
2019-05-14T10:30:05.668Z,21.90
2019-05-14T10:32:08.752Z,21.96
2019-05-14T10:34:08.946Z,22.00
2019-05-14T10:36:10.619Z,21.98
2019-05-14T10:38:12.229Z,22.00
2019-05-14T10:40:13.996Z,22.05
2019-05-14T10:42:15.593Z,22.16
2019-05-14T10:44:18.797Z,22.34
2019-05-14T10:46:19.309Z,22.37
2019-05-14T10:48:20.812Z,22.29
2019-05-14T10:50:22.463Z,22.28
2019-05-14T10:52:24.086Z,22.24
2019-05-14T10:54:28.691Z,22.21
2019-05-14T10:56:29.716Z,22.16
2019-05-14T10:58:29.247Z,22.14
2019-05-14T11:00:30.677Z,22.12
2019-05-14T11:02:32.255Z,22.13
2019-05-14T11:04:34.605Z,22.22
2019-05-14T11:06:35.512Z,22.26
2019-05-14T11:08:38.715Z,22.34
2019-05-14T11:10:42.336Z,22.38
2019-05-14T11:12:40.432Z,22.40
2019-05-14T11:14:42.133Z,22.33
2019-05-14T11:16:43.760Z,22.63
2019-05-14T11:18:45.419Z,22.47
2019-05-14T11:20:51.276Z,22.52
2019-05-14T11:22:49.234Z,22.41
2019-05-14T11:24:50.327Z,22.34
2019-05-14T11:26:51.936Z,22.29
2019-05-14T11:28:53.546Z,22.25
2019-05-14T11:30:55.139Z,22.20
2019-05-14T11:32:58.463Z,22.17
2019-05-14T11:34:59.246Z,22.11
2019-05-14T11:37:00.436Z,22.10
2019-05-14T11:39:03.981Z,22.08
2019-05-14T11:41:03.971Z,22.06
2019-05-14T11:43:05.543Z,22.06
2019-05-14T11:45:08.913Z,22.06
2019-05-14T11:47:09.251Z,22.04
2019-05-14T11:49:10.468Z,22.00
2019-05-14T11:51:12.052Z,21.97
2019-05-14T11:53:13.653Z,21.96
2019-05-14T11:55:15.263Z,21.94
2019-05-14T11:57:19.170Z,21.90
2019-05-14T11:59:19.068Z,21.86
2019-05-14T12:01:20.283Z,21.84
2019-05-14T12:03:21.868Z,21.83
2019-05-14T12:05:23.472Z,21.80
2019-05-14T12:07:25.093Z,21.80
2019-05-14T12:09:28.368Z,21.78
2019-05-14T12:11:29.087Z,21.77
2019-05-14T12:13:32.777Z,21.78
2019-05-14T12:15:31.675Z,21.79
2019-05-14T12:17:33.293Z,21.81
2019-05-14T12:19:34.874Z,21.82
2019-05-14T12:21:36.459Z,21.84
2019-05-14T12:23:39.385Z,21.85
2019-05-14T12:25:39.696Z,21.86
2019-05-14T12:27:41.280Z,21.86
2019-05-14T12:29:42.870Z,21.85
2019-05-14T12:31:44.520Z,21.82
2019-05-14T12:33:48.657Z,21.83
2019-05-14T12:35:49.543Z,21.82
2019-05-14T12:37:49.460Z,21.83
2019-05-14T12:39:51.076Z,21.60
2019-05-14T12:41:52.689Z,21.89
2019-05-14T12:43:54.290Z,21.91
2019-05-14T12:45:59.103Z,21.93
2019-05-14T12:47:58.495Z,21.95
2019-05-14T12:49:59.220Z,21.99
2019-05-14T12:52:16.329Z,22.01
2019-05-14T12:54:02.469Z,21.90
2019-05-14T12:56:04.112Z,22.07
2019-05-14T12:58:08.114Z,22.10
2019-05-14T13:00:08.939Z,22.10
2019-05-14T13:02:09.787Z,22.12
2019-05-14T13:04:10.684Z,21.99
2019-05-14T13:06:12.283Z,22.10
2019-05-14T13:08:13.864Z,22.11
2019-05-14T13:10:15.473Z,22.11
2019-05-14T13:12:18.981Z,22.10
2019-05-14T13:14:18.733Z,22.09
2019-05-14T13:16:20.340Z,22.08
2019-05-14T13:18:21.967Z,22.07
2019-05-14T13:20:23.570Z,22.13
2019-05-14T13:22:38.287Z,22.13
2019-05-14T13:24:28.804Z,22.09
2019-05-14T13:26:29.698Z,22.08
2019-05-14T13:28:30.228Z,22.04
2019-05-14T13:30:31.858Z,22.01
2019-05-14T13:32:33.512Z,21.96
2019-05-14T13:34:35.124Z,21.94
2019-05-14T13:36:39.500Z,21.94
2019-05-14T13:38:39.786Z,21.95
2019-05-14T13:40:40.157Z,22.00
2019-05-14T13:42:44.514Z,21.99
2019-05-14T13:44:43.438Z,21.98
2019-05-14T13:46:45.035Z,21.94
2019-05-14T13:48:49.601Z,21.91
2019-05-14T13:50:49.098Z,21.87
2019-05-14T13:53:03.021Z,21.81
2019-05-14T13:54:51.645Z,21.75
2019-05-14T13:56:53.255Z,21.70
2019-05-14T13:58:54.844Z,21.65
2019-05-14T14:00:59.141Z,21.63
2019-05-14T14:02:58.954Z,21.60
2019-05-14T14:04:59.731Z,21.48
2019-05-14T14:07:01.313Z,21.65
2019-05-14T14:09:02.899Z,21.66
2019-05-14T14:11:04.746Z,21.68
2019-05-14T14:13:10.650Z,21.69
2019-05-14T14:15:09.447Z,21.69
2019-05-14T14:17:09.535Z,21.64
2019-05-14T14:19:11.125Z,21.59
2019-05-14T14:21:12.714Z,21.55
2019-05-14T14:23:21.936Z,21.54
2019-05-14T14:25:17.761Z,21.55
2019-05-14T14:27:19.544Z,21.54
2019-05-14T14:29:19.431Z,21.52
2019-05-14T14:31:21.037Z,21.52
2019-05-14T14:33:22.664Z,21.52
2019-05-14T14:35:24.779Z,21.57
2019-05-14T14:37:28.506Z,21.62
2019-05-14T14:39:28.573Z,21.66
2019-05-14T14:41:29.242Z,21.70
2019-05-14T14:43:30.830Z,21.76
2019-05-14T14:45:32.589Z,21.80
2019-05-14T14:47:34.285Z,21.80
2019-05-14T14:49:35.916Z,21.79
2019-05-14T14:51:44.503Z,21.78
2019-05-14T14:53:52.587Z,21.73
2019-05-14T14:55:40.981Z,21.68
2019-05-14T14:57:45.753Z,21.62
2019-05-14T14:59:45.201Z,21.54
2019-05-14T15:01:49.842Z,21.50
2019-05-14T15:03:49.585Z,21.49
2019-05-14T15:05:50.113Z,21.55
2019-05-14T15:07:51.760Z,21.65
2019-05-14T15:09:53.331Z,21.70
2019-05-14T15:11:54.925Z,21.80
2019-05-14T15:13:58.695Z,21.90
2019-05-14T15:16:00.957Z,21.97
2019-05-14T15:17:59.833Z,22.05
2019-05-14T15:20:01.479Z,22.08
2019-05-14T15:22:03.164Z,22.11
2019-05-14T15:24:13.834Z,22.14
2019-05-14T15:26:11.566Z,22.16
2019-05-14T15:28:09.439Z,22.19
2019-05-14T15:30:09.904Z,22.16
2019-05-14T15:32:11.538Z,22.20
2019-05-14T15:34:13.140Z,22.16
2019-05-14T15:36:14.759Z,22.20
2019-05-14T15:38:16.415Z,22.19
2019-05-14T15:40:22.158Z,22.18
2019-05-14T15:42:19.681Z,22.08
2019-05-14T15:44:21.269Z,22.01
2019-05-14T15:46:22.852Z,21.97
2019-05-14T15:48:24.427Z,21.95
2019-05-14T15:50:29.151Z,21.92
2019-05-14T15:52:28.972Z,21.89
2019-05-14T15:54:42.088Z,21.86
2019-05-14T15:56:31.061Z,21.85
2019-05-14T15:58:32.686Z,21.83
2019-05-14T16:00:34.317Z,21.81
2019-05-14T16:02:38.674Z,21.79
2019-05-14T16:04:38.879Z,21.78
2019-05-14T16:06:39.202Z,21.76
2019-05-14T16:08:40.785Z,21.70
2019-05-14T16:10:42.428Z,21.69
2019-05-14T16:12:44.007Z,21.66
2019-05-14T16:14:48.738Z,21.66
2019-05-14T16:16:48.720Z,21.66
2019-05-14T16:18:49.012Z,21.67
2019-05-14T16:20:50.652Z,21.66
2019-05-14T16:22:52.377Z,21.65
2019-05-14T16:24:57.081Z,21.61
2019-05-14T16:26:55.671Z,21.58
2019-05-14T16:28:59.283Z,21.54
2019-05-14T16:30:59.347Z,21.51
2019-05-14T16:33:00.636Z,21.20
2019-05-14T16:35:02.210Z,21.43
2019-05-14T16:37:03.821Z,21.38
2019-05-14T16:39:05.422Z,21.34
2019-05-14T16:41:06.999Z,21.34
2019-05-14T16:43:08.616Z,21.34
2019-05-14T16:45:10.238Z,21.38
2019-05-14T16:47:11.836Z,21.39
2019-05-14T16:49:13.489Z,21.44
2019-05-14T16:51:15.077Z,21.44
2019-05-14T16:53:16.716Z,21.48
2019-05-14T16:55:24.521Z,21.52
2019-05-14T16:57:19.936Z,21.54
2019-05-14T16:59:21.534Z,21.58
2019-05-14T17:01:23.128Z,21.62
2019-05-14T17:03:24.747Z,21.65
2019-05-14T17:05:28.853Z,21.65
2019-05-14T17:07:28.905Z,21.70
2019-05-14T17:09:29.625Z,21.74
2019-05-14T17:11:31.310Z,21.50
2019-05-14T17:13:32.916Z,21.80
2019-05-14T17:15:34.528Z,21.84
2019-05-14T17:17:36.171Z,21.84
2019-05-14T17:19:38.572Z,21.85
2019-05-14T17:21:39.424Z,21.86
2019-05-14T17:23:41.017Z,21.85
2019-05-14T17:25:42.615Z,21.81
2019-05-14T17:27:44.222Z,21.75
2019-05-14T17:29:45.809Z,21.69
2019-05-14T17:31:49.338Z,21.64
2019-05-14T17:33:49.433Z,21.63
2019-05-14T17:35:50.721Z,21.66
2019-05-14T17:37:52.347Z,21.68
2019-05-14T17:39:53.979Z,21.68
2019-05-14T17:41:55.680Z,21.69
2019-05-14T17:43:58.597Z,21.70
2019-05-14T17:45:58.944Z,21.74
2019-05-14T17:48:00.625Z,21.77
2019-05-14T17:50:02.248Z,21.77
2019-05-14T17:52:03.887Z,21.75
2019-05-14T17:54:05.541Z,21.76
2019-05-14T17:56:08.427Z,21.76
2019-05-14T17:58:13.112Z,21.78
2019-05-14T18:00:11.056Z,21.68
2019-05-14T18:02:14.190Z,21.79
2019-05-14T18:04:18.210Z,21.78
2019-05-14T18:06:18.901Z,21.79
2019-05-14T18:08:21.675Z,21.80
2019-05-14T18:10:23.596Z,21.77
2019-05-14T18:12:25.428Z,21.74
2019-05-14T18:14:28.400Z,21.68
2019-05-14T18:16:28.828Z,21.63
2019-05-14T18:18:30.380Z,21.58
2019-05-14T18:20:31.996Z,21.51
2019-05-14T18:22:33.648Z,21.46
2019-05-14T18:24:35.242Z,21.41
2019-05-14T18:26:38.597Z,21.37
2019-05-14T18:28:38.581Z,21.31
2019-05-14T18:30:40.184Z,21.28
2019-05-14T18:32:41.804Z,21.26
2019-05-14T18:34:43.404Z,21.27
2019-05-14T18:36:44.982Z,21.32
2019-05-14T18:38:49.106Z,21.36
2019-05-14T18:40:49.532Z,21.39
2019-05-14T18:42:50.721Z,21.43
2019-05-14T18:44:52.328Z,21.42
2019-05-14T18:46:53.963Z,21.44
2019-05-14T18:48:55.536Z,21.47
2019-05-14T18:50:59.274Z,21.50
2019-05-14T18:52:59.711Z,21.55
2019-05-14T18:55:00.515Z,21.59
2019-05-14T18:57:02.122Z,21.61
2019-05-14T18:59:03.732Z,21.63
2019-05-14T19:01:05.340Z,21.65
2019-05-14T19:03:08.445Z,21.68
2019-05-14T19:05:08.749Z,21.70
2019-05-14T19:07:10.282Z,21.71
2019-05-14T19:09:11.868Z,21.74
2019-05-14T19:11:13.476Z,21.72
2019-05-14T19:13:15.096Z,21.69
2019-05-14T19:15:18.561Z,21.67
2019-05-14T19:17:18.749Z,21.62
2019-05-14T19:19:20.780Z,21.62
2019-05-14T19:21:21.876Z,21.66
2019-05-14T19:23:23.496Z,21.68
2019-05-14T19:25:25.100Z,21.69
2019-05-14T19:27:28.628Z,21.71
2019-05-14T19:29:28.373Z,21.74
2019-05-14T19:31:29.974Z,21.74
2019-05-14T19:33:31.607Z,21.76
2019-05-14T19:35:33.196Z,21.75
2019-05-14T19:37:34.804Z,21.75
2019-05-14T19:39:38.363Z,21.75
2019-05-14T19:41:38.983Z,21.73
2019-05-14T19:43:39.728Z,21.74
2019-05-14T19:45:41.340Z,21.71
2019-05-14T19:47:42.928Z,21.74
2019-05-14T19:49:44.550Z,21.74
2019-05-14T19:51:48.121Z,21.70
2019-05-14T19:53:48.889Z,21.70
2019-05-14T19:55:49.432Z,21.71
2019-05-14T19:57:51.056Z,21.73
2019-05-14T19:59:52.737Z,21.71
2019-05-14T20:01:54.368Z,21.70
2019-05-14T20:03:55.965Z,21.72
2019-05-14T20:05:57.664Z,21.72
2019-05-14T20:07:59.257Z,21.70
2019-05-14T20:10:00.901Z,21.72
2019-05-14T20:12:02.661Z,21.71
2019-05-14T20:14:04.272Z,21.70
2019-05-14T20:16:05.900Z,21.68
2019-05-14T20:18:08.933Z,21.68
2019-05-14T20:20:09.273Z,21.65
2019-05-14T20:22:10.852Z,21.59
2019-05-14T20:24:12.437Z,21.53
2019-05-14T20:26:14.085Z,21.48
2019-05-14T20:28:15.692Z,21.42
2019-05-14T20:30:18.786Z,21.36
2019-05-14T20:32:19.505Z,21.31
2019-05-14T20:34:20.636Z,21.00
2019-05-14T20:36:22.253Z,21.21
2019-05-14T20:38:23.916Z,21.18
2019-05-14T20:40:25.557Z,21.13
2019-05-14T20:42:28.979Z,21.09
2019-05-14T20:44:28.823Z,21.08
2019-05-14T20:46:30.436Z,21.04
2019-05-14T20:48:32.050Z,21.01
2019-05-14T20:50:33.626Z,20.99
2019-05-14T20:52:35.218Z,20.96
2019-05-14T20:54:36.823Z,20.94
2019-05-14T20:56:40.200Z,20.55
2019-05-14T20:58:40.108Z,20.88
2019-05-14T21:00:41.739Z,21.27
2019-05-14T21:02:43.364Z,21.70
2019-05-14T21:04:45.039Z,22.27
2019-05-14T21:06:48.582Z,22.35
2019-05-14T21:08:48.892Z,22.53
2019-05-14T21:10:50.082Z,22.72
2019-05-14T21:12:51.713Z,22.68
2019-05-14T21:14:53.324Z,22.32
2019-05-14T21:16:54.911Z,22.42
2019-05-14T21:18:59.066Z,22.42
2019-05-14T21:20:58.160Z,22.43
2019-05-14T21:22:59.758Z,22.50
2019-05-14T21:25:01.437Z,22.58
2019-05-14T21:27:03.050Z,22.63
2019-05-14T21:29:04.707Z,22.66
2019-05-14T21:31:10.141Z,22.69
2019-05-14T21:33:08.549Z,22.73
2019-05-14T21:35:09.701Z,22.72
2019-05-14T21:37:11.302Z,22.83
2019-05-14T21:39:12.960Z,22.86
2019-05-14T21:41:14.547Z,23.10
2019-05-14T21:43:18.398Z,23.04
2019-05-14T21:45:18.149Z,23.28
2019-05-14T21:47:19.448Z,23.44
2019-05-14T21:49:21.047Z,23.45
2019-05-14T21:51:22.661Z,23.53
2019-05-14T21:53:24.268Z,23.48
2019-05-14T21:55:25.924Z,23.52
2019-05-14T21:57:28.355Z,23.55
2019-05-14T21:59:29.216Z,23.00
2019-05-14T22:01:31.147Z,22.64
2019-05-14T22:03:32.444Z,22.67
2019-05-14T22:05:34.258Z,22.72
2019-05-14T22:07:35.856Z,22.76
2019-05-14T22:09:40.581Z,23.45
2019-05-14T22:11:39.400Z,23.22
2019-05-14T22:13:40.740Z,23.28
2019-05-14T22:15:42.368Z,23.09
2019-05-14T22:17:43.952Z,22.96
2019-05-14T22:19:45.588Z,22.91
2019-05-14T22:21:49.101Z,22.91
2019-05-14T22:23:48.839Z,22.94
2019-05-14T22:25:50.483Z,23.18
2019-05-14T22:27:52.108Z,23.06
2019-05-14T22:29:53.688Z,23.00
2019-05-14T22:31:55.296Z,22.96
2019-05-14T22:33:58.283Z,22.86
2019-05-14T22:35:58.536Z,22.56
2019-05-14T22:38:00.124Z,22.49
2019-05-14T22:40:01.716Z,22.38
2019-05-14T22:42:03.338Z,22.28
2019-05-14T22:44:04.952Z,22.19
2019-05-14T22:46:08.462Z,22.15
2019-05-14T22:48:09.400Z,22.12
2019-05-14T22:50:09.823Z,22.06
2019-05-14T22:52:11.740Z,22.03
2019-05-14T22:54:13.364Z,22.01
2019-05-14T22:56:14.973Z,21.99
2019-05-14T22:58:25.212Z,21.94
2019-05-14T23:00:20.739Z,21.91
2019-05-14T23:02:19.948Z,21.86
2019-05-14T23:04:21.576Z,21.86
2019-05-14T23:06:23.169Z,21.85
2019-05-14T23:08:24.780Z,21.83
2019-05-14T23:10:26.391Z,21.81
2019-05-14T23:12:28.669Z,21.80
2019-05-14T23:14:29.658Z,21.83
2019-05-14T23:16:37.760Z,21.82
2019-05-14T23:18:32.912Z,21.81
2019-05-14T23:20:34.497Z,21.81
2019-05-14T23:22:38.860Z,21.80
2019-05-14T23:24:39.115Z,21.79
2019-05-14T23:26:39.438Z,21.78
2019-05-14T23:28:45.509Z,21.77
2019-05-14T23:30:42.674Z,21.73
2019-05-14T23:32:44.277Z,21.73
2019-05-14T23:34:45.888Z,21.78
2019-05-14T23:36:48.287Z,21.79
2019-05-14T23:38:49.329Z,21.82
2019-05-14T23:40:50.787Z,21.85
2019-05-14T23:42:52.375Z,21.84
2019-05-14T23:44:53.968Z,21.91
2019-05-14T23:46:55.557Z,21.92
2019-05-14T23:48:59.169Z,21.89
2019-05-14T23:50:58.784Z,21.86
2019-05-14T23:53:00.369Z,21.82
2019-05-14T23:55:01.939Z,21.78
2019-05-14T23:57:03.520Z,21.77
2019-05-14T23:59:05.104Z,21.77
